Time;durP1;ratioP1;P1;durP2;ratioP2;P2;SDS_P1;SDS_P2;PMS_P1;PMS_P2;Temp;Humidity;BMP_temperature;BMP_pressure;BME280_temperature;BME280_humidity;BME280_pressure;Samples;Min_cycle;Max_cycle;Signal;HPM_P1;HPM_P2
2021/12/30 00:01:13;;;;;;;4.63;2.10;;;19.20;60.70;19.70;100333.00;;;;5047814;28;20170;-39
2021/12/30 00:03:39;;;;;;;5.50;2.27;;;19.30;60.70;19.80;100336.00;;;;5049243;28;20197;-40
2021/12/30 00:06:06;;;;;;;3.83;2.20;;;19.30;60.60;19.80;100331.00;;;;5050858;28;20618;-40
2021/12/30 00:08:31;;;;;;;5.30;2.20;;;19.30;60.70;19.90;100330.00;;;;5050949;28;20177;-39
2021/12/30 00:10:57;;;;;;;4.33;2.23;;;19.30;60.90;19.90;100344.00;;;;5049641;28;20914;-40
2021/12/30 00:13:23;;;;;;;3.90;2.30;;;19.20;61.30;20.00;100355.00;;;;5047543;28;20272;-39
2021/12/30 00:15:49;;;;;;;4.60;2.30;;;19.20;61.00;20.00;100362.00;;;;5050100;28;20209;-40
2021/12/30 00:18:15;;;;;;;4.67;2.37;;;19.30;61.10;20.00;100386.00;;;;5048390;28;20170;-41
2021/12/30 00:20:41;;;;;;;2.97;2.03;;;19.30;61.40;20.00;100399.00;;;;5050636;28;20162;-40
2021/12/30 00:23:08;;;;;;;3.93;2.17;;;19.20;61.10;20.00;100387.00;;;;5060931;28;20230;-40
2021/12/30 00:25:40;;;;;;;4.67;2.53;;;19.20;61.30;20.00;100392.00;;;;5057993;28;20822;-40
2021/12/30 00:28:07;;;;;;;3.47;2.23;;;19.30;61.40;20.00;100391.00;;;;5047873;28;20312;-40
2021/12/30 00:30:32;;;;;;;4.40;2.13;;;19.20;61.30;20.00;100397.00;;;;5047655;28;20173;-40
2021/12/30 00:32:58;;;;;;;4.13;2.43;;;19.20;61.30;20.10;100414.00;;;;5047556;28;20635;-40
2021/12/30 00:35:24;;;;;;;5.17;2.50;;;19.20;61.30;20.10;100387.00;;;;5046993;28;20206;-40
2021/12/30 00:37:50;;;;;;;3.63;2.20;;;19.20;61.30;20.10;100393.00;;;;5046924;28;20166;-39
2021/12/30 00:40:15;;;;;;;4.70;2.70;;;19.20;61.30;20.00;100414.00;;;;5046975;28;20232;-40
2021/12/30 00:42:41;;;;;;;4.77;2.50;;;19.20;61.60;20.10;100418.00;;;;5047103;28;20170;-39
2021/12/30 00:45:07;;;;;;;5.73;2.77;;;19.20;61.30;20.10;100418.00;;;;5046844;28;20165;-40
2021/12/30 00:47:33;;;;;;;4.00;2.43;;;19.20;61.30;20.10;100420.00;;;;5047127;28;20170;-40
2021/12/30 00:49:59;;;;;;;5.60;3.10;;;19.10;61.50;20.00;100423.00;;;;5046578;28;20772;-39
2021/12/30 00:52:25;;;;;;;5.30;2.70;;;19.10;61.50;20.00;100425.00;;;;5046662;28;20177;-39
2021/12/30 00:54:51;;;;;;;4.07;2.43;;;19.10;61.50;20.00;100427.00;;;;5052649;28;20262;-40
2021/12/30 00:57:16;;;;;;;5.13;2.70;;;19.00;61.50;20.00;100437.00;;;;5057122;28;20431;-40
2021/12/30 00:59:42;;;;;;;5.03;2.70;;;19.00;61.50;20.00;100433.00;;;;5049565;28;20229;-40
2021/12/30 01:02:08;;;;;;;5.33;2.80;;;19.10;61.70;20.00;100437.00;;;;5046307;28;20170;-40
2021/12/30 01:04:34;;;;;;;4.70;2.50;;;19.00;61.60;20.00;100447.00;;;;5046445;28;20201;-40
2021/12/30 01:06:59;;;;;;;3.93;2.70;;;19.00;61.60;20.00;100444.00;;;;5046217;28;20229;-40
2021/12/30 01:09:25;;;;;;;5.17;2.77;;;19.00;61.70;20.00;100435.00;;;;5046738;28;20169;-40
2021/12/30 01:11:51;;;;;;;5.23;2.90;;;19.00;61.80;20.00;100437.00;;;;5046631;28;20175;-40
2021/12/30 01:14:21;;;;;;;5.33;2.90;;;19.00;61.70;19.90;100446.00;;;;5046351;28;20189;-39
2021/12/30 01:16:50;;;;;;;5.27;2.90;;;19.00;61.80;19.90;100441.00;;;;5046425;28;20842;-40
2021/12/30 01:19:42;;;;;;;5.13;3.00;;;19.00;61.90;19.90;100447.00;;;;5046639;28;20201;-40
2021/12/30 01:22:10;;;;;;;5.47;3.00;;;18.90;61.70;19.90;100431.00;;;;5046551;28;20226;-40
2021/12/30 01:24:36;;;;;;;5.03;2.90;;;18.90;61.80;19.90;100435.00;;;;5046702;28;20166;-40
2021/12/30 01:27:01;;;;;;;4.37;2.90;;;18.90;61.80;19.90;100448.00;;;;5046595;28;20697;-40
2021/12/30 01:29:29;;;;;;;5.30;3.00;;;18.80;61.70;19.90;100437.00;;;;5046391;28;20582;-39
2021/12/30 01:31:54;;;;;;;5.67;3.00;;;18.80;61.80;19.90;100437.00;;;;5046712;28;20200;-39
2021/12/30 01:34:21;;;;;;;4.93;3.00;;;18.80;61.90;19.80;100434.00;;;;5046366;28;20173;-39
2021/12/30 01:36:47;;;;;;;4.73;3.10;;;18.80;61.90;19.80;100378.00;;;;5046667;28;20221;-39
2021/12/30 01:39:13;;;;;;;5.00;3.20;;;18.80;62.10;19.80;100454.00;;;;5046335;28;20200;-40
2021/12/30 01:41:40;;;;;;;6.07;3.17;;;18.80;62.10;19.80;100455.00;;;;5046015;28;20557;-40
2021/12/30 01:44:06;;;;;;;8.80;3.67;;;18.80;62.10;19.70;100457.00;;;;5046134;28;21316;-40
2021/12/30 01:46:40;;;;;;;6.10;3.40;;;18.70;62.10;19.80;100458.00;;;;5046394;28;20271;-40
2021/12/30 01:49:06;;;;;;;5.13;3.00;;;18.70;62.20;19.80;100464.00;;;;5046147;28;20776;-39
2021/12/30 01:51:31;;;;;;;4.10;2.87;;;18.70;62.20;19.70;100465.00;;;;5046200;28;20178;-41
2021/12/30 01:53:57;;;;;;;4.97;3.13;;;18.70;62.20;19.70;100466.00;;;;5046357;28;20166;-39
2021/12/30 01:56:23;;;;;;;5.57;3.03;;;18.70;62.50;19.70;100466.00;;;;5046011;28;20206;-39
2021/12/30 01:58:49;;;;;;;5.73;3.27;;;18.70;62.30;19.70;100466.00;;;;5046417;28;20177;-40
2021/12/30 02:01:15;;;;;;;5.07;3.13;;;18.70;62.40;19.70;100474.00;;;;5047973;28;20216;-44
2021/12/30 02:03:40;;;;;;;5.43;3.13;;;18.60;62.50;19.70;100465.00;;;;5060263;28;20174;-40
2021/12/30 02:06:06;;;;;;;6.30;3.07;;;18.60;62.50;19.70;100459.00;;;;5045910;28;20251;-39
2021/12/30 02:08:32;;;;;;;6.47;3.30;;;18.60;62.50;19.60;100472.00;;;;5045621;28;20703;-41
2021/12/30 02:10:57;;;;;;;6.50;3.30;;;18.60;62.50;19.60;100461.00;;;;5045914;28;20181;-39
2021/12/30 02:13:23;;;;;;;5.20;3.03;;;18.60;62.50;19.60;100459.00;;;;5045993;28;20190;-39
2021/12/30 02:15:49;;;;;;;6.03;3.23;;;18.60;62.50;19.60;100454.00;;;;5049668;28;20620;-39
2021/12/30 02:18:15;;;;;;;7.33;3.30;;;18.60;62.60;19.60;100457.00;;;;5049899;28;20218;-39
2021/12/30 02:20:58;;;;;;;5.57;2.93;;;18.60;62.50;19.60;100443.00;;;;5049928;28;20225;-39
2021/12/30 02:23:26;;;;;;;7.10;3.30;;;18.60;62.50;19.60;100456.00;;;;5049776;28;20233;-39
2021/12/30 02:25:55;;;;;;;6.67;3.33;;;18.50;62.40;19.50;100455.00;;;;5049587;28;20569;-40
2021/12/30 02:28:24;;;;;;;5.40;2.93;;;18.50;62.40;19.50;100448.00;;;;5048292;28;20223;-39
2021/12/30 02:30:50;;;;;;;4.77;2.90;;;18.50;62.50;19.50;100455.00;;;;5049496;28;20194;-39
2021/12/30 02:33:16;;;;;;;6.07;3.23;;;18.50;62.40;19.50;100449.00;;;;5049512;28;20182;-39
2021/12/30 02:35:42;;;;;;;5.77;3.20;;;18.50;62.50;19.50;100444.00;;;;5049238;28;20206;-39
2021/12/30 02:38:08;;;;;;;6.90;3.50;;;18.50;62.50;19.50;100437.00;;;;5049436;28;20189;-39
2021/12/30 02:40:45;;;;;;;8.13;3.70;;;18.50;62.50;19.50;100455.00;;;;5049684;28;20169;-39
2021/12/30 02:43:17;;;;;;;5.77;3.40;;;18.50;62.60;19.40;100445.00;;;;5049630;28;20197;-39
2021/12/30 02:45:43;;;;;;;6.20;3.10;;;18.40;62.50;19.40;100438.00;;;;5049127;28;20201;-40
2021/12/30 02:48:19;;;;;;;4.33;3.00;;;18.40;62.70;19.40;100444.00;;;;5049210;28;20188;-40
2021/12/30 02:50:46;;;;;;;5.57;3.33;;;18.40;62.70;19.40;100440.00;;;;5049071;28;20155;-40
2021/12/30 02:53:12;;;;;;;5.43;3.20;;;18.40;62.70;19.40;100449.00;;;;5049004;28;20177;-40
2021/12/30 02:55:38;;;;;;;4.93;3.00;;;18.40;62.80;19.40;100452.00;;;;5049094;28;20220;-39
2021/12/30 02:58:04;;;;;;;5.27;3.03;;;18.40;62.90;19.40;100453.00;;;;5048876;28;20247;-39
2021/12/30 03:00:30;;;;;;;5.73;3.10;;;18.30;62.90;19.40;100460.00;;;;5049032;28;20249;-40
2021/12/30 03:02:56;;;;;;;6.03;3.17;;;18.30;63.20;19.40;100461.00;;;;5049286;28;20173;-39
2021/12/30 03:05:24;;;;;;;5.20;3.10;;;18.30;62.90;19.40;100457.00;;;;5049267;28;20285;-39
2021/12/30 03:07:50;;;;;;;5.20;3.00;;;18.30;63.10;19.30;100466.00;;;;5048915;28;20186;-41
2021/12/30 03:10:20;;;;;;;5.17;3.23;;;18.30;63.10;19.30;100460.00;;;;5049080;28;20184;-41
2021/12/30 03:12:45;;;;;;;5.30;3.00;;;18.30;63.20;19.30;100458.00;;;;5048599;28;20208;-39
2021/12/30 03:15:13;;;;;;;5.10;3.33;;;18.30;63.20;19.30;100464.00;;;;5048512;28;20425;-39
2021/12/30 03:17:39;;;;;;;5.83;3.00;;;18.20;63.20;19.30;100468.00;;;;5048173;28;20696;-39
2021/12/30 03:20:09;;;;;;;5.53;3.03;;;18.20;63.30;19.30;100472.00;;;;5048889;28;20174;-40
2021/12/30 03:22:37;;;;;;;6.27;3.23;;;18.20;63.30;19.30;100474.00;;;;5048658;28;20179;-40
2021/12/30 03:25:05;;;;;;;5.20;2.90;;;18.20;63.30;19.30;100478.00;;;;5048201;28;20176;-40
2021/12/30 03:27:30;;;;;;;5.90;2.93;;;18.20;63.30;19.30;100482.00;;;;5048276;28;20201;-40
2021/12/30 03:29:56;;;;;;;6.27;3.20;;;18.20;63.50;19.20;100484.00;;;;5048368;28;20178;-40
2021/12/30 03:32:22;;;;;;;10.57;4.10;;;18.20;64.50;19.20;100476.00;;;;5027163;28;20608;-40
2021/12/30 03:34:48;;;;;;;8.80;3.83;;;17.40;69.30;19.00;100484.00;;;;5027382;28;20198;-40
2021/12/30 03:37:13;;;;;;;6.43;3.77;;;16.60;72.80;18.80;100476.00;;;;5027069;28;20189;-40
2021/12/30 03:39:40;;;;;;;8.30;4.00;;;16.40;74.90;18.60;100473.00;;;;5027653;28;20655;-40
2021/12/30 03:42:07;;;;;;;8.47;4.33;;;16.10;76.70;18.50;100481.00;;;;5027404;28;20173;-44
2021/12/30 03:44:32;;;;;;;7.30;3.57;;;16.00;77.20;18.40;100471.00;;;;5028364;28;20175;-40
2021/12/30 03:46:58;;;;;;;9.83;3.90;;;16.10;76.00;18.30;100481.00;;;;5028215;28;20574;-40
2021/12/30 03:49:24;;;;;;;9.53;4.30;;;16.00;77.60;18.20;100479.00;;;;5028172;28;20167;-40
2021/12/30 03:51:52;;;;;;;10.03;3.90;;;16.10;77.80;18.10;100486.00;;;;5027908;28;20182;-40
2021/12/30 03:54:17;;;;;;;8.67;3.83;;;16.10;76.80;18.10;100479.00;;;;5028551;28;20186;-40
2021/12/30 03:56:43;;;;;;;7.47;3.80;;;16.10;76.30;18.10;100480.00;;;;5028079;28;20215;-40
2021/12/30 03:59:09;;;;;;;7.47;4.03;;;16.40;75.70;18.10;100490.00;;;;5026885;28;20639;-40
2021/12/30 04:01:35;;;;;;;7.23;3.60;;;16.40;74.90;18.10;100486.00;;;;5027807;28;20663;-40
2021/12/30 04:04:00;;;;;;;9.33;4.40;;;16.50;73.70;18.10;100486.00;;;;5028111;28;20258;-40
2021/12/30 04:06:27;;;;;;;7.63;4.03;;;16.50;75.20;18.10;100478.00;;;;5027705;28;20203;-40
2021/12/30 04:08:54;;;;;;;8.70;3.47;;;16.40;75.30;18.10;100480.00;;;;5028265;28;20183;-40
2021/12/30 04:11:26;;;;;;;7.23;3.40;;;16.50;73.20;18.10;100398.00;;;;5028150;28;20181;-39
2021/12/30 04:13:52;;;;;;;6.07;3.07;;;16.60;73.60;18.10;100483.00;;;;5027606;28;20221;-39
2021/12/30 04:16:19;;;;;;;6.77;4.00;;;16.40;74.40;18.00;100474.00;;;;5026414;28;20696;-39
2021/12/30 04:18:48;;;;;;;7.33;4.50;;;16.10;77.30;18.00;100477.00;;;;5027827;28;20175;-40
2021/12/30 04:21:18;;;;;;;10.00;4.07;;;15.80;78.80;17.90;100486.00;;;;5027663;28;20169;-41
2021/12/30 04:23:44;;;;;;;7.17;4.00;;;15.90;79.00;17.90;100486.00;;;;5027470;28;20659;-40
2021/12/30 04:26:10;;;;;;;6.70;3.30;;;16.00;77.00;17.80;100485.00;;;;5027552;28;20207;-40
2021/12/30 04:28:35;;;;;;;5.90;3.50;;;16.00;76.70;17.80;100496.00;;;;5027059;28;20203;-41
2021/12/30 04:31:01;;;;;;;5.70;3.57;;;15.80;78.60;17.70;100489.00;;;;5027639;28;20179;-39
2021/12/30 04:33:27;;;;;;;6.83;3.50;;;15.80;78.50;17.70;100486.00;;;;5027310;28;20171;-41
2021/12/30 04:35:56;;;;;;;5.10;2.93;;;15.90;77.00;17.70;100501.00;;;;5027207;28;20847;-40
2021/12/30 04:38:26;;;;;;;5.07;3.43;;;16.10;77.00;17.70;100483.00;;;;5029997;28;20179;-41
2021/12/30 04:40:52;;;;;;;5.10;3.00;;;15.80;78.50;17.70;100482.00;;;;5028561;28;20656;-39
2021/12/30 04:43:18;;;;;;;4.50;2.90;;;16.10;75.80;17.70;100482.00;;;;5029414;28;20170;-39
2021/12/30 04:45:46;;;;;;;3.97;3.00;;;16.30;75.00;17.80;100496.00;;;;5034643;28;20194;-40
2021/12/30 04:48:12;;;;;;;5.17;2.83;;;16.40;76.20;17.80;100495.00;;;;5029682;28;20680;-40
2021/12/30 04:50:38;;;;;;;4.30;3.00;;;16.30;75.50;17.80;100492.00;;;;5027154;28;20173;-40
2021/12/30 04:53:04;;;;;;;4.03;3.00;;;16.30;76.50;17.80;100487.00;;;;5025806;28;20181;-40
2021/12/30 04:55:29;;;;;;;3.93;2.70;;;16.10;77.80;17.80;100479.00;;;;5027165;28;20289;-40
2021/12/30 04:57:55;;;;;;;4.30;2.90;;;16.20;75.90;17.80;100486.00;;;;5026570;28;20655;-39
2021/12/30 05:00:21;;;;;;;4.03;2.73;;;16.10;77.90;17.80;100493.00;;;;5027166;28;20221;-40
2021/12/30 05:03:08;;;;;;;5.93;2.50;;;16.30;74.70;17.80;100486.00;;;;5026787;28;20167;-40
2021/12/30 05:05:46;;;;;;;4.77;2.50;;;16.70;73.00;17.90;100500.00;;;;5026949;28;20226;-40
2021/12/30 05:08:12;;;;;;;3.30;2.20;;;16.90;71.60;17.90;100494.00;;;;5026275;28;20163;-39
2021/12/30 05:10:38;;;;;;;4.07;2.50;;;17.00;70.90;18.00;100492.00;;;;5026903;28;20171;-39
2021/12/30 05:13:05;;;;;;;6.50;2.40;;;17.10;70.30;18.10;100503.00;;;;5026897;28;20175;-39
2021/12/30 05:15:30;;;;;;;3.70;2.00;;;17.20;70.00;18.10;100505.00;;;;5026960;28;20203;-41
2021/12/30 05:17:56;;;;;;;5.40;2.40;;;17.20;69.50;18.20;100504.00;;;;5027402;28;20178;-39
2021/12/30 05:20:22;;;;;;;4.97;2.50;;;17.30;69.20;18.20;100500.00;;;;5034842;28;20179;-39
2021/12/30 05:22:48;;;;;;;3.77;2.10;;;17.30;68.80;18.20;100497.00;;;;5026080;28;20304;-39
2021/12/30 05:25:15;;;;;;;2.90;2.30;;;17.30;68.70;18.20;100507.00;;;;5026470;28;20371;-39
2021/12/30 05:27:40;;;;;;;4.23;1.87;;;17.30;68.50;18.30;100522.00;;;;5026026;28;20174;-39
2021/12/30 05:30:08;;;;;;;3.83;2.27;;;17.40;68.40;18.30;100500.00;;;;5026182;28;20163;-39
2021/12/30 05:32:34;;;;;;;2.70;2.00;;;17.40;68.50;18.30;100505.00;;;;5026575;28;20573;-41
2021/12/30 05:35:01;;;;;;;2.40;2.03;;;17.40;68.40;18.30;100504.00;;;;5025999;28;20198;-40
2021/12/30 05:37:27;;;;;;;2.30;2.10;;;17.40;68.00;18.30;100508.00;;;;5026003;28;20171;-40
2021/12/30 05:39:53;;;;;;;4.73;2.50;;;17.40;67.80;18.30;100504.00;;;;5026067;28;20171;-40
2021/12/30 05:42:22;;;;;;;2.50;1.80;;;17.40;67.70;18.40;100501.00;;;;5026092;28;20691;-39
2021/12/30 05:44:50;;;;;;;1.90;1.80;;;17.40;67.70;18.40;100512.00;;;;5030671;28;20182;-40
2021/12/30 05:47:16;;;;;;;3.83;2.23;;;17.40;67.70;18.40;100517.00;;;;5028015;28;20248;-40
2021/12/30 05:49:42;;;;;;;2.60;2.13;;;17.40;67.50;18.40;100517.00;;;;5029338;28;20206;-40
2021/12/30 05:52:07;;;;;;;2.53;2.00;;;17.40;67.40;18.40;100517.00;;;;5029896;28;20652;-40
2021/12/30 05:54:33;;;;;;;2.17;1.90;;;17.40;67.40;18.40;100525.00;;;;5029815;28;20182;-40
2021/12/30 05:56:59;;;;;;;2.20;1.90;;;17.40;67.30;18.40;100508.00;;;;5029728;28;20192;-39
2021/12/30 05:59:24;;;;;;;4.53;2.00;;;17.40;67.20;18.40;100528.00;;;;5029314;28;20654;-39
2021/12/30 06:01:50;;;;;;;2.17;1.90;;;17.40;67.20;18.40;100520.00;;;;5029976;28;20172;-40
2021/12/30 06:04:16;;;;;;;2.27;1.90;;;17.40;67.40;18.40;100522.00;;;;5030111;28;20221;-40
2021/12/30 06:06:41;;;;;;;2.13;1.90;;;17.40;67.30;18.40;100513.00;;;;5029814;28;20199;-39
2021/12/30 06:09:07;;;;;;;2.63;1.73;;;17.40;67.30;18.10;100517.00;;;;5029278;28;20182;-39
2021/12/30 06:11:33;;;;;;;2.93;1.90;;;17.40;67.30;18.40;100517.00;;;;5029677;28;20213;-40
2021/12/30 06:13:59;;;;;;;2.13;1.73;;;17.40;67.00;18.40;100528.00;;;;5029615;28;20191;-40
2021/12/30 06:16:25;;;;;;;1.70;1.60;;;17.40;67.50;18.40;100521.00;;;;5029563;28;20234;-40
2021/12/30 06:18:50;;;;;;;2.90;1.80;;;17.40;67.20;18.40;100535.00;;;;5029680;28;20274;-40
2021/12/30 06:21:16;;;;;;;2.00;1.70;;;17.40;67.00;18.40;100549.00;;;;5033618;28;20800;-40
2021/12/30 06:23:42;;;;;;;2.00;1.80;;;17.40;66.80;18.40;100548.00;;;;5029804;28;20179;-39
2021/12/30 06:26:08;;;;;;;3.60;1.67;;;17.40;66.80;18.40;100543.00;;;;5029546;28;20194;-39
2021/12/30 06:28:33;;;;;;;2.47;1.80;;;17.40;66.60;18.40;100569.00;;;;5029145;28;20179;-41
2021/12/30 06:30:59;;;;;;;2.13;1.80;;;17.40;66.60;18.40;100547.00;;;;5029338;28;20175;-39
2021/12/30 06:33:25;;;;;;;2.20;1.60;;;17.40;66.60;18.40;100564.00;;;;5029447;28;20804;-39
2021/12/30 06:35:50;;;;;;;2.00;1.80;;;17.40;66.60;18.40;100553.00;;;;5029093;28;20208;-39
2021/12/30 06:38:16;;;;;;;1.70;1.60;;;17.40;66.60;18.40;100546.00;;;;5029292;28;20169;-39
2021/12/30 06:40:42;;;;;;;1.70;1.60;;;17.40;66.60;18.40;100555.00;;;;5029245;28;20677;-39
2021/12/30 06:43:09;;;;;;;1.77;1.60;;;17.30;66.50;18.40;100558.00;;;;5028967;28;20194;-39
2021/12/30 06:45:34;;;;;;;1.60;1.50;;;17.40;66.60;18.40;100566.00;;;;5028840;28;20194;-40
2021/12/30 06:48:00;;;;;;;2.07;1.70;;;17.30;66.50;18.40;100566.00;;;;5028502;28;20747;-41
2021/12/30 06:50:31;;;;;;;1.60;1.50;;;17.30;66.50;18.40;100572.00;;;;5037980;28;20641;-40
2021/12/30 06:52:57;;;;;;;1.80;1.70;;;17.30;66.50;18.30;100563.00;;;;5040869;28;20155;-40
2021/12/30 06:55:22;;;;;;;1.50;1.40;;;17.30;66.50;18.30;100563.00;;;;5028217;28;20205;-40
2021/12/30 06:57:48;;;;;;;1.70;1.60;;;17.30;66.50;18.30;100575.00;;;;5028759;28;20229;-40
2021/12/30 07:00:14;;;;;;;1.63;1.47;;;17.30;66.50;18.30;100566.00;;;;5027136;28;20178;-39
2021/12/30 07:02:43;;;;;;;2.17;1.70;;;17.30;66.50;18.30;100571.00;;;;5028208;28;20171;-39
2021/12/30 07:05:09;;;;;;;2.20;1.63;;;17.30;66.50;18.30;100575.00;;;;5028517;28;20167;-40
2021/12/30 07:07:35;;;;;;;1.60;1.50;;;17.30;66.40;18.30;100575.00;;;;5026772;28;20171;-40
2021/12/30 07:10:01;;;;;;;1.57;1.40;;;17.30;66.40;18.30;100570.00;;;;5027932;28;20515;-40
2021/12/30 07:12:26;;;;;;;1.97;1.50;;;17.30;66.40;18.30;100579.00;;;;5028166;28;20255;-40
2021/12/30 07:14:52;;;;;;;2.10;1.53;;;17.30;66.30;18.30;100574.00;;;;5027835;28;20214;-40
2021/12/30 07:17:18;;;;;;;1.77;1.43;;;17.30;66.50;18.30;100575.00;;;;5027742;28;20195;-40
2021/12/30 07:19:44;;;;;;;1.90;1.70;;;17.30;66.30;18.30;100574.00;;;;5027619;28;20167;-40
2021/12/30 07:22:09;;;;;;;1.50;1.40;;;17.30;66.50;18.30;100580.00;;;;5028202;28;20177;-40
2021/12/30 07:24:35;;;;;;;1.43;1.30;;;17.30;66.40;18.30;100586.00;;;;5027908;28;20533;-40
2021/12/30 07:27:01;;;;;;;1.40;1.30;;;17.30;66.30;18.30;100577.00;;;;5027610;28;20187;-40
2021/12/30 07:29:26;;;;;;;1.37;1.27;;;17.30;66.50;18.30;100582.00;;;;5027849;28;20257;-40
2021/12/30 07:31:52;;;;;;;1.50;1.40;;;17.30;66.20;18.30;100601.00;;;;5027709;28;20651;-40
2021/12/30 07:34:18;;;;;;;1.73;1.50;;;17.30;66.50;18.30;100597.00;;;;5027697;28;20175;-39
2021/12/30 07:36:43;;;;;;;1.50;1.40;;;17.30;66.40;18.30;100600.00;;;;5027554;28;20235;-40
2021/12/30 07:39:09;;;;;;;1.63;1.50;;;17.30;66.30;18.30;100607.00;;;;5027516;28;20669;-40
2021/12/30 07:41:35;;;;;;;2.13;1.33;;;17.30;66.20;18.30;100618.00;;;;5027775;28;20176;-39
2021/12/30 07:44:01;;;;;;;1.50;1.40;;;17.30;66.40;18.30;100632.00;;;;5027601;28;20171;-40
2021/12/30 07:46:26;;;;;;;1.40;1.30;;;17.30;67.10;18.30;100643.00;;;;5027176;28;20189;-39
2021/12/30 07:48:52;;;;;;;1.53;1.43;;;17.30;66.00;18.30;100637.00;;;;5026841;28;20176;-40
2021/12/30 07:51:18;;;;;;;1.87;1.40;;;17.30;66.00;18.30;100643.00;;;;5027491;28;20172;-40
2021/12/30 07:53:43;;;;;;;1.60;1.50;;;17.30;66.40;18.30;100650.00;;;;5027316;28;20178;-40
2021/12/30 07:56:09;;;;;;;1.13;1.07;;;17.30;66.30;18.30;100653.00;;;;5030126;28;20210;-39
2021/12/30 07:58:35;;;;;;;1.83;1.40;;;17.30;66.30;18.30;100650.00;;;;5038482;28;20172;-40
2021/12/30 08:01:01;;;;;;;1.43;1.33;;;17.30;66.00;18.30;100660.00;;;;5027208;28;20171;-39
2021/12/30 08:03:26;;;;;;;1.10;1.10;;;17.30;66.00;18.30;100656.00;;;;5027226;28;20793;-40
2021/12/30 08:05:52;;;;;;;1.30;1.20;;;17.30;65.90;18.30;100656.00;;;;5032516;28;20202;-40
2021/12/30 08:08:18;;;;;;;1.50;1.40;;;17.30;66.00;18.30;100662.00;;;;5036707;28;20168;-40
2021/12/30 08:10:44;;;;;;;1.40;1.30;;;17.30;66.10;18.30;100668.00;;;;5039418;28;20187;-40
2021/12/30 08:13:09;;;;;;;1.50;1.40;;;17.30;66.10;18.30;100671.00;;;;5050218;28;20198;-39
2021/12/30 08:15:35;;;;;;;1.30;1.20;;;17.30;66.00;18.30;100681.00;;;;5050462;28;20860;-40
2021/12/30 08:18:01;;;;;;;1.20;1.20;;;17.30;66.10;18.30;100680.00;;;;5049778;28;20173;-40
2021/12/30 08:20:27;;;;;;;1.40;1.30;;;17.30;65.90;18.30;100674.00;;;;5049294;28;20171;-42
2021/12/30 08:22:53;;;;;;;1.33;1.23;;;17.30;65.90;18.40;100691.00;;;;5049791;28;20154;-39
2021/12/30 08:25:19;;;;;;;1.10;1.10;;;17.30;65.90;18.30;100681.00;;;;5049618;28;21098;-39
2021/12/30 08:27:45;;;;;;;1.40;1.30;;;17.30;66.00;18.40;100685.00;;;;5049392;28;20508;-41
2021/12/30 08:30:14;;;;;;;1.13;1.13;;;17.30;65.90;18.30;100675.00;;;;5049103;28;20219;-40
2021/12/30 08:32:40;;;;;;;1.10;1.10;;;17.30;65.70;18.30;100692.00;;;;5049627;28;20198;-40
2021/12/30 08:35:07;;;;;;;1.00;1.00;;;17.30;65.70;18.30;100684.00;;;;5049428;28;20278;-40
2021/12/30 08:37:34;;;;;;;1.00;1.00;;;17.30;65.80;18.40;100691.00;;;;5049325;28;20267;-40
2021/12/30 08:40:01;;;;;;;1.23;1.23;;;17.30;65.50;18.30;100695.00;;;;5049437;28;20180;-40
2021/12/30 08:42:28;;;;;;;1.77;1.20;;;17.30;65.70;18.30;100698.00;;;;5049468;28;20202;-40
2021/12/30 08:44:56;;;;;;;1.60;1.30;;;17.30;65.60;18.30;100704.00;;;;5049245;28;20631;-40
2021/12/30 08:47:23;;;;;;;1.10;1.10;;;17.30;65.50;18.30;100703.00;;;;5049035;28;20190;-41
2021/12/30 08:49:49;;;;;;;1.30;1.30;;;17.30;65.50;18.30;100701.00;;;;5049022;28;20158;-40
2021/12/30 08:52:17;;;;;;;1.30;1.20;;;17.30;65.50;18.30;100706.00;;;;5048946;28;20189;-40
2021/12/30 08:54:43;;;;;;;1.40;1.30;;;17.30;65.40;18.40;100709.00;;;;5048952;28;20179;-39
2021/12/30 08:57:09;;;;;;;1.40;1.30;;;17.30;65.50;18.30;100717.00;;;;5047684;28;20781;-39
2021/12/30 08:59:35;;;;;;;1.07;1.00;;;17.30;65.40;18.30;100718.00;;;;5048671;28;20171;-39
2021/12/30 09:02:05;;;;;;;1.07;1.07;;;17.30;65.20;18.30;100718.00;;;;5049321;28;20170;-40
2021/12/30 09:04:31;;;;;;;1.10;1.10;;;17.30;65.20;18.30;100723.00;;;;5059600;28;20257;-39
2021/12/30 09:06:57;;;;;;;1.50;1.10;;;17.30;65.20;18.30;100726.00;;;;5079580;28;20711;-44
2021/12/30 09:09:22;;;;;;;1.40;1.17;;;17.30;65.70;18.30;100727.00;;;;5076827;28;20178;-38
2021/12/30 09:11:48;;;;;;;2.30;1.40;;;17.30;65.30;18.30;100729.00;;;;5068903;28;20661;-39
2021/12/30 09:14:14;;;;;;;1.30;1.20;;;17.30;65.70;18.30;100733.00;;;;5068462;28;20189;-40
2021/12/30 09:16:40;;;;;;;1.20;1.00;;;17.30;66.20;18.30;100739.00;;;;5068474;28;20209;-39
2021/12/30 09:19:06;;;;;;;2.20;1.40;;;17.30;65.80;18.40;100735.00;;;;5070436;28;20630;-39
2021/12/30 09:21:32;;;;;;;1.50;1.27;;;17.30;65.60;18.40;100743.00;;;;5069574;28;20179;-41
2021/12/30 09:23:58;;;;;;;1.27;1.17;;;17.30;65.60;18.40;100743.00;;;;5054122;28;20232;-38
2021/12/30 09:26:25;;;;;;;2.50;1.57;;;17.30;65.50;18.30;100744.00;;;;5047955;28;20246;-41
2021/12/30 09:28:51;;;;;;;2.57;1.10;;;17.30;65.60;18.30;100746.00;;;;5047765;28;20178;-39
2021/12/30 09:31:17;;;;;;;1.50;1.30;;;17.40;65.70;18.30;100744.00;;;;5048122;28;20654;-39
2021/12/30 09:33:43;;;;;;;2.27;1.20;;;17.30;66.00;18.30;100757.00;;;;5048219;28;20186;-39
2021/12/30 09:36:09;;;;;;;4.43;1.40;;;17.30;65.80;18.30;100739.00;;;;5048393;28;20206;-40
2021/12/30 09:38:35;;;;;;;2.80;1.13;;;17.30;65.50;18.30;100739.00;;;;5047962;28;20735;-38
2021/12/30 09:41:01;;;;;;;4.43;1.23;;;17.40;65.80;18.30;100747.00;;;;5048135;28;20194;-39
2021/12/30 09:43:26;;;;;;;3.13;1.23;;;17.30;65.50;18.30;100742.00;;;;5048494;28;20554;-39
2021/12/30 09:45:52;;;;;;;3.50;1.60;;;17.40;65.70;18.40;100747.00;;;;5048596;28;20186;-40
2021/12/30 09:48:18;;;;;;;10.10;1.67;;;17.60;66.00;18.50;100761.00;;;;5048244;28;20658;-39
2021/12/30 09:50:52;;;;;;;4.80;1.50;;;17.70;65.60;18.50;100757.00;;;;5055430;28;20201;-40
2021/12/30 09:53:23;;;;;;;12.13;2.00;;;18.00;65.70;18.60;100756.00;;;;5066822;28;20190;-39
2021/12/30 09:55:50;;;;;;;5.93;1.60;;;18.20;65.00;18.80;100767.00;;;;5052486;28;20223;-39
2021/12/30 09:58:16;;;;;;;7.43;1.40;;;18.50;65.10;18.90;100767.00;;;;5047736;28;20175;-39
2021/12/30 10:00:41;;;;;;;6.73;1.50;;;18.80;64.50;19.10;100764.00;;;;5046768;28;20181;-39
2021/12/30 10:03:07;;;;;;;4.37;1.40;;;18.90;64.10;19.20;100765.00;;;;5048138;28;20551;-39
2021/12/30 10:05:36;;;;;;;3.20;1.60;;;19.00;64.20;19.30;100764.00;;;;5048154;28;20197;-39
2021/12/30 10:08:20;;;;;;;4.73;1.50;;;19.00;64.60;19.40;100764.00;;;;5048106;28;20155;-39
2021/12/30 10:10:48;;;;;;;10.13;1.93;;;19.10;64.80;19.50;100757.00;;;;5047237;28;20162;-40
2021/12/30 10:13:31;;;;;;;10.17;1.57;;;19.20;65.10;19.60;100757.00;;;;5047454;28;20219;-40
2021/12/30 10:15:59;;;;;;;6.03;1.67;;;19.20;64.70;19.60;100762.00;;;;5047637;28;20730;-40
2021/12/30 10:18:40;;;;;;;5.13;1.70;;;19.20;64.80;19.70;100761.00;;;;5047275;28;20784;-39
2021/12/30 10:21:15;;;;;;;4.83;1.40;;;19.20;64.70;19.70;100766.00;;;;5049041;28;20229;-38
2021/12/30 10:23:52;;;;;;;5.83;1.30;;;19.20;64.70;19.70;100759.00;;;;5049486;28;20166;-38
2021/12/30 10:26:18;;;;;;;3.13;1.50;;;19.20;64.70;19.80;100750.00;;;;5047344;28;20190;-38
2021/12/30 10:28:44;;;;;;;5.13;1.47;;;19.20;64.80;19.80;100765.00;;;;5047072;28;20170;-38
2021/12/30 10:31:13;;;;;;;3.13;1.47;;;19.20;65.00;19.80;100773.00;;;;5046831;28;20584;-39
2021/12/30 10:33:58;;;;;;;5.73;1.77;;;19.20;64.90;19.90;100792.00;;;;5047727;28;20178;-39
2021/12/30 10:36:30;;;;;;;5.00;1.80;;;19.30;65.00;19.90;100788.00;;;;5051251;28;20251;-40
2021/12/30 10:39:27;;;;;;;6.57;1.97;;;19.20;65.60;19.90;100794.00;;;;5051200;28;20289;-38
2021/12/30 10:42:10;;;;;;;8.17;1.80;;;19.20;65.00;19.90;100788.00;;;;5051322;28;20165;-39
2021/12/30 10:44:57;;;;;;;8.33;2.10;;;19.20;65.10;19.90;100797.00;;;;5051628;28;20174;-40
2021/12/30 10:47:28;;;;;;;7.07;1.87;;;19.20;65.10;19.90;100793.00;;;;5048612;28;20203;-40